| time (UTC) | temp C | wind direction | speed KPH | gust KPH | rain 1hr cm | rain 24hr cm | rain mn cm | humidity % | barometer mb |
| 20260503053211 | 22 | 297 | 0.0 | 1.6 | 0.00 | 0.00 | 0.00 | 92 | 1014.0 |
| 20260503052710 | 22 | 330 | 0.0 | 3.2 | 0.00 | 0.00 | 0.00 | 92 | 1014.2 |
| 20260503052210 | 22 | 326 | 0.0 | 1.6 | 0.00 | 0.00 | 0.00 | 92 | 1014.2 |
| 20260503051710 | 22 | 233 | 0.0 | 1.6 | 0.00 | 0.00 | 0.00 | 92 | 1014.2 |
| 20260503051210 | 22 | 230 | 0.0 | 1.6 | 0.00 | 0.00 | 0.00 | 92 | 1014.3 |
| 20260503050711 | 22 | 276 | 0.0 | 1.6 | 0.00 | 0.00 | 0.00 | 92 | 1014.4 |
| 20260503050210 | 22 | 273 | 0.0 | 0.0 | 0.00 | 0.00 | 0.00 | 92 | 1014.3 |
| 20260503045711 | 22 | 242 | 0.0 | 1.6 | 0.00 | 0.00 | 0.00 | 93 | 1014.3 |
| 20260503045210 | 22 | 286 | 1.6 | 1.6 | 0.00 | 0.00 | 0.00 | 93 | 1014.4 |
| 20260503044711 | 22 | 291 | 0.0 | 1.6 | 0.00 | 0.00 | 0.00 | 93 | 1014.6 |
| 20260503044210 | 22 | 266 | 0.0 | 1.6 | 0.00 | 0.00 | 0.00 | 93 | 1014.5 |
| 20260503043710 | 22 | 280 | 1.6 | 3.2 | 0.00 | 0.00 | 0.00 | 94 | 1014.5 |
| 20260503043210 | 22 | 270 | 1.6 | 3.2 | 0.00 | 0.00 | 0.00 | 94 | 1014.7 |
| 20260503042710 | 22 | 244 | 0.0 | 3.2 | 0.00 | 0.00 | 0.00 | 95 | 1014.6 |
| 20260503042211 | 22 | 246 | 0.0 | 1.6 | 0.00 | 0.00 | 0.00 | 95 | 1014.4 |
| 20260503041710 | 22 | 301 | 0.0 | 0.0 | 0.00 | 0.00 | 0.00 | 95 | 1014.6 |
| 20260503041210 | 22 | 0 | 0.0 | 0.0 | 0.00 | 0.00 | 0.00 | 95 | 1014.7 |
| 20260503040710 | 22 | 0 | 0.0 | 0.0 | 0.00 | 0.00 | 0.00 | 95 | 1014.7 |
| 20260503040210 | 22 | 0 | 0.0 | 0.0 | 0.00 | 0.00 | 0.00 | 95 | 1014.6 |
| 20260503035710 | 22 | 292 | 0.0 | 0.0 | 0.00 | 0.00 | 0.84 | 95 | 1014.5 |
| 20260503035210 | 22 | 304 | 0.0 | 1.6 | 0.00 | 0.00 | 0.84 | 95 | 1014.3 |
| 20260503034710 | 22 | 0 | 0.0 | 0.0 | 0.00 | 0.00 | 0.84 | 95 | 1014.1 |
| 20260503034210 | 22 | 306 | 0.0 | 1.6 | 0.00 | 0.00 | 0.84 | 95 | 1014.1 |
| 20260503033710 | 22 | 350 | 0.0 | 1.6 | 0.00 | 0.00 | 0.84 | 95 | 1013.8 |
| 20260503033210 | 22 | 298 | 1.6 | 3.2 | 0.00 | 0.00 | 0.84 | 95 | 1013.9 |
| 20260503032710 | 22 | 0 | 0.0 | 0.0 | 0.00 | 0.00 | 0.84 | 94 | 1013.6 |
| 20260503032213 | 22 | 0 | 0.0 | 0.0 | 0.00 | 0.00 | 0.84 | 94 | 1013.6 |
| 20260503031711 | 22 | 12 | 1.6 | 3.2 | 0.00 | 0.00 | 0.84 | 94 | 1013.5 |
| 20260503031211 | 22 | 0 | 0.0 | 0.0 | 0.00 | 0.00 | 0.84 | 94 | 1013.6 |
| 20260503030710 | 22 | 273 | 1.6 | 3.2 | 0.00 | 0.00 | 0.84 | 94 | 1013.5 |
| 20260503030211 | 22 | 224 | 0.0 | 1.6 | 0.00 | 0.00 | 0.84 | 94 | 1013.3 |
| 20260503025710 | 22 | 248 | 0.0 | 3.2 | 0.00 | 0.00 | 0.84 | 94 | 1013.2 |
| 20260503025210 | 22 | 238 | 1.6 | 1.6 | 0.00 | 0.00 | 0.84 | 94 | 1013.1 |
| 20260503024710 | 22 | 206 | 3.2 | 4.8 | 0.00 | 0.00 | 0.84 | 94 | 1012.9 |
| 20260503024210 | 22 | 343 | 1.6 | 3.2 | 0.00 | 0.00 | 0.84 | 94 | 1012.6 |
| 20260503023710 | 22 | 4 | 0.0 | 0.0 | 0.00 | 0.00 | 0.84 | 94 | 1012.9 |
| 20260503023210 | 22 | 206 | 1.6 | 3.2 | 0.10 | 0.00 | 0.81 | 94 | 1012.7 |
| 20260503022710 | 22 | 156 | 1.6 | 3.2 | 0.00 | 0.00 | 0.81 | 94 | 1012.5 |
| 20260503022211 | 22 | 200 | 0.0 | 3.2 | 0.08 | 0.00 | 0.81 | 93 | 1012.8 |
| 20260503021710 | 22 | 17 | 0.0 | 1.6 | 0.13 | 0.00 | 0.79 | 93 | 1013.0 |
| 20260503021210 | 22 | 100 | 0.0 | 1.6 | 0.23 | 0.00 | 0.76 | 92 | 1013.2 |
| 20260503020710 | 22 | 216 | 0.0 | 1.6 | 0.13 | 0.00 | 0.76 | 92 | 1013.5 |
| 20260503020210 | 22 | 217 | 0.0 | 3.2 | 0.05 | 0.00 | 0.74 | 91 | 1013.5 |
| 20260503015711 | 22 | 255 | 0.0 | 3.2 | 0.00 | 0.00 | 0.74 | 91 | 1013.3 |
| 20260503015211 | 22 | 326 | 0.0 | 1.6 | 0.03 | 0.00 | 0.74 | 90 | 1013.2 |
| 20260503014711 | 22 | 233 | 1.6 | 3.2 | 0.00 | 0.00 | 0.74 | 90 | 1013.3 |
| 20260503014211 | 22 | 267 | 1.6 | 3.2 | 0.00 | 0.00 | 0.74 | 89 | 1013.3 |
| 20260503013710 | 22 | 216 | 3.2 | 4.8 | 0.00 | 0.00 | 0.74 | 88 | 1012.6 |
| 20260503013210 | 21 | 210 | 3.2 | 8.0 | 0.00 | 0.00 | 0.74 | 89 | 1012.5 |
| 20260503012710 | 22 | 191 | 4.8 | 9.7 | 0.00 | 0.00 | 0.74 | 89 | 1012.1 |
| 20260503012211 | 22 | 159 | 6.4 | 9.7 | 0.00 | 0.00 | 0.74 | 90 | 1011.7 |
| 20260503011710 | 22 | 167 | 4.8 | 9.7 | 0.00 | 0.00 | 0.74 | 91 | 1011.9 |
| 20260503011210 | 22 | 155 | 4.8 | 6.4 | 0.00 | 0.00 | 0.74 | 92 | 1012.2 |
| 20260503010711 | 22 | 219 | 1.6 | 3.2 | 0.00 | 0.00 | 0.74 | 92 | 1012.5 |
| 20260503010210 | 22 | 0 | 0.0 | 0.0 | 0.00 | 0.00 | 0.76 | 92 | 1012.2 |
| 20260503005710 | 22 | 246 | 1.6 | 3.2 | 0.00 | 0.00 | 0.76 | 93 | 1012.5 |
| 20260503005211 | 22 | 203 | 1.6 | 3.2 | 0.00 | 0.00 | 0.76 | 92 | 1011.9 |
| 20260503004710 | 22 | 170 | 1.6 | 6.4 | 0.00 | 0.00 | 0.74 | 92 | 1012.0 |
| 20260503004211 | 22 | 193 | 0.0 | 3.2 | 0.00 | 0.00 | 0.74 | 92 | 1012.3 |
| 20260503003710 | 21 | 206 | 1.6 | 4.8 | 0.00 | 0.00 | 0.74 | 92 | 1012.4 |
| 20260503003210 | 21 | 218 | 3.2 | 4.8 | 0.00 | 0.00 | 0.74 | 92 | 1012.3 |
| 20260503002710 | 21 | 156 | 4.8 | 6.4 | 0.00 | 0.00 | 0.74 | 92 | 1012.1 |
| 20260503002211 | 21 | 187 | 4.8 | 6.4 | 0.00 | 0.00 | 0.74 | 92 | 1012.5 |
| 20260503001710 | 21 | 206 | 3.2 | 6.4 | 0.00 | 0.00 | 0.74 | 92 | 1012.4 |
| 20260503001211 | 21 | 207 | 4.8 | 6.4 | 0.00 | 0.00 | 0.74 | 93 | 1012.2 |
| 20260503000710 | 21 | 32 | 0.0 | 1.6 | 0.03 | 0.00 | 0.74 | 93 | 1011.3 |
| 20260503000211 | 21 | 345 | 0.0 | 0.0 | 0.00 | 0.00 | 0.74 | 93 | 1011.4 |
| 20260502235711 | 21 | 0 | 0.0 | 0.0 | 0.00 | 0.00 | 0.74 | 92 | 1011.8 |
| 20260502235211 | 21 | 297 | 0.0 | 0.0 | 0.00 | 0.00 | 0.74 | 93 | 1011.9 |
| 20260502234710 | 21 | 223 | 3.2 | 3.2 | 0.00 | 0.00 | 0.74 | 92 | 1012.3 |
| 20260502234210 | 21 | 0 | 0.0 | 0.0 | 0.00 | 0.00 | 0.74 | 92 | 1012.2 |
| 20260502233710 | 21 | 286 | 0.0 | 1.6 | 0.00 | 0.00 | 0.74 | 92 | 1012.4 |
| 20260502233210 | 21 | 0 | 0.0 | 0.0 | 0.00 | 0.00 | 0.69 | 92 | 1012.3 |
| 20260502232710 | 22 | 0 | 0.0 | 0.0 | 0.00 | 0.00 | 0.69 | 91 | 1012.5 |
| 20260502232210 | 22 | 0 | 0.0 | 0.0 | 1.47 | 0.00 | 0.69 | 91 | 1012.5 |
| 20260502231710 | 22 | 300 | 1.6 | 3.2 | 0.28 | 0.00 | 0.48 | 91 | 1012.6 |
| 20260502231210 | 22 | 309 | 1.6 | 3.2 | 0.00 | 0.00 | 0.46 | 91 | 1012.7 |
| 20260502230711 | 22 | 301 | 1.6 | 3.2 | 0.00 | 0.00 | 0.46 | 91 | 1012.3 |
| 20260502230211 | 22 | 345 | 1.6 | 3.2 | 0.00 | 0.00 | 0.51 | 90 | 1012.2 |
| 20260502225711 | 22 | 331 | 1.6 | 3.2 | 0.00 | 0.00 | 0.51 | 91 | 1012.2 |
| 20260502225210 | 22 | 289 | 3.2 | 4.8 | 0.00 | 0.00 | 0.51 | 91 | 1012.3 |
| 20260502224710 | 22 | 312 | 1.6 | 3.2 | 0.00 | 0.00 | 0.51 | 91 | 1012.0 |
| 20260502224210 | 22 | 329 | 1.6 | 3.2 | 0.00 | 0.00 | 0.51 | 91 | 1012.1 |
| 20260502223712 | 22 | 346 | 1.6 | 3.2 | 0.00 | 0.00 | 0.51 | 91 | 1012.1 |
| 20260502223210 | 22 | 313 | 3.2 | 4.8 | 0.00 | 0.00 | 0.51 | 92 | 1012.3 |
| 20260502222711 | 22 | 295 | 1.6 | 3.2 | 0.00 | 0.00 | 0.51 | 92 | 1012.3 |
| 20260502222210 | 22 | 332 | 0.0 | 3.2 | 0.00 | 0.00 | 0.56 | 92 | 1012.0 |
| 20260502221710 | 22 | 348 | 3.2 | 3.2 | 0.00 | 0.00 | 0.56 | 91 | 1012.0 |
| 20260502221210 | 22 | 323 | 3.2 | 4.8 | 0.00 | 0.00 | 0.56 | 91 | 1011.8 |
| 20260502220710 | 23 | 281 | 6.4 | 9.7 | 0.00 | 0.00 | 0.66 | 90 | 1011.6 |
| 20260502220210 | 24 | 293 | 6.4 | 14.5 | 0.43 | 0.00 | 0.66 | 89 | 1011.7 |
| 20260502215710 | 26 | 293 | 8.0 | 12.9 | 9.55 | 0.00 | 0.30 | 84 | 1012.0 |
| 20260502215211 | 27 | 307 | 6.4 | 9.7 | 0.00 | 0.00 | 0.00 | 75 | 1011.6 |
| 20260502214711 | 27 | 203 | 4.8 | 9.7 | 0.00 | 0.00 | 0.00 | 74 | 1010.9 |
| 20260502214210 | 27 | 241 | 4.8 | 11.3 | 0.00 | 0.00 | 0.00 | 73 | 1011.0 |
| 20260502213710 | 28 | 264 | 4.8 | 9.7 | 0.00 | 0.00 | 0.00 | 73 | 1011.1 |
| 20260502213210 | 28 | 229 | 3.2 | 8.0 | 0.00 | 0.00 | 0.00 | 72 | 1011.1 |
| 20260502212710 | 28 | 246 | 4.8 | 9.7 | 0.00 | 0.00 | 0.00 | 71 | 1011.1 |
| 20260502212210 | 28 | 245 | 4.8 | 9.7 | 0.00 | 0.00 | 0.00 | 69 | 1011.2 |
| 20260502211710 | 28 | 271 | 8.0 | 17.7 | 0.00 | 0.00 | 0.00 | 69 | 1011.1 |
| 20260502211212 | 28 | 252 | 3.2 | 6.4 | 0.10 | 0.00 | 0.00 | 69 | 1010.8 |
| 20260502210710 | 28 | 253 | 4.8 | 9.7 | 0.00 | 0.00 | 0.00 | 69 | 1010.6 |
| 20260502210211 | 28 | 250 | 6.4 | 12.9 | 0.00 | 0.00 | 0.00 | 68 | 1010.5 |
| 20260502205710 | 29 | 223 | 4.8 | 9.7 | 0.00 | 0.00 | 0.00 | 67 | 1010.4 |
| 20260502205210 | 29 | 264 | 4.8 | 11.3 | 0.08 | 0.00 | 0.00 | 66 | 1010.5 |
| 20260502204710 | 29 | 257 | 6.4 | 11.3 | 0.00 | 0.00 | 0.00 | 64 | 1010.5 |
| 20260502204210 | 29 | 280 | 6.4 | 9.7 | 0.00 | 0.00 | 0.00 | 63 | 1010.4 |
| 20260502203710 | 30 | 283 | 4.8 | 6.4 | 0.00 | 0.00 | 0.00 | 62 | 1010.5 |
| 20260502203210 | 30 | 280 | 8.0 | 11.3 | 0.00 | 0.00 | 0.00 | 62 | 1010.5 |
| 20260502202710 | 30 | 266 | 3.2 | 9.7 | 0.00 | 0.00 | 0.00 | 62 | 1010.5 |
| 20260502202210 | 30 | 292 | 3.2 | 8.0 | 0.00 | 0.00 | 0.00 | 61 | 1010.6 |
| 20260502201710 | 30 | 256 | 3.2 | 6.4 | 0.00 | 0.00 | 0.00 | 60 | 1010.7 |
| 20260502201211 | 31 | 233 | 4.8 | 9.7 | 0.00 | 0.00 | 0.00 | 60 | 1010.7 |
| 20260502200711 | 31 | 258 | 4.8 | 9.7 | 0.00 | 0.00 | 0.00 | 60 | 1010.6 |
| 20260502200210 | 31 | 249 | 6.4 | 12.9 | 0.00 | 0.00 | 0.00 | 58 | 1010.5 |
| 20260502195710 | 31 | 214 | 11.3 | 16.1 | 0.00 | 0.00 | 0.00 | 62 | 1010.5 |
| 20260502195210 | 31 | 279 | 3.2 | 6.4 | 0.00 | 0.00 | 0.00 | 62 | 1010.6 |
| 20260502194711 | 31 | 231 | 6.4 | 12.9 | 0.00 | 0.00 | 0.00 | 62 | 1010.6 |
| 20260502194210 | 31 | 232 | 6.4 | 12.9 | 0.00 | 0.00 | 0.00 | 63 | 1010.6 |
| 20260502193710 | 31 | 206 | 8.0 | 16.1 | 0.00 | 0.00 | 0.00 | 62 | 1010.5 |
| 20260502193210 | 31 | 197 | 8.0 | 14.5 | 0.00 | 0.00 | 0.00 | 62 | 1010.6 |
| 20260502192711 | 31 | 261 | 9.7 | 19.3 | 0.00 | 0.00 | 0.00 | 62 | 1010.7 |
| 20260502192210 | 31 | 211 | 6.4 | 12.9 | 0.00 | 0.00 | 0.00 | 63 | 1010.7 |
| 20260502191710 | 31 | 198 | 11.3 | 14.5 | 0.00 | 0.00 | 0.00 | 63 | 1010.7 |
| 20260502191210 | 31 | 197 | 9.7 | 14.5 | 0.00 | 0.00 | 0.00 | 63 | 1010.9 |
| 20260502190711 | 31 | 232 | 6.4 | 9.7 | 0.00 | 0.00 | 0.00 | 64 | 1010.9 |
| 20260502190211 | 31 | 203 | 9.7 | 16.1 | 0.00 | 0.00 | 0.00 | 65 | 1011.2 |
| 20260502185711 | 31 | 219 | 6.4 | 11.3 | 0.00 | 0.00 | 0.00 | 64 | 1011.1 |
| 20260502185210 | 31 | 234 | 9.7 | 16.1 | 0.00 | 0.00 | 0.00 | 64 | 1011.1 |
| 20260502184710 | 30 | 199 | 11.3 | 20.9 | 0.00 | 0.00 | 0.00 | 65 | 1011.3 |
| 20260502184211 | 31 | 260 | 4.8 | 11.3 | 0.00 | 0.00 | 0.00 | 65 | 1011.4 |
| 20260502183711 | 31 | 204 | 9.7 | 19.3 | 0.00 | 0.00 | 0.00 | 64 | 1011.4 |
| 20260502183211 | 31 | 251 | 8.0 | 16.1 | 0.00 | 0.00 | 0.00 | 64 | 1011.6 |
| 20260502182710 | 30 | 235 | 3.2 | 11.3 | 0.00 | 0.00 | 0.00 | 66 | 1011.6 |
| 20260502182210 | 31 | 264 | 8.0 | 16.1 | 0.00 | 0.00 | 0.00 | 65 | 1011.6 |
| 20260502181711 | 31 | 261 | 8.0 | 17.7 | 0.00 | 0.00 | 0.00 | 64 | 1011.5 |
| 20260502181211 | 31 | 224 | 9.7 | 16.1 | 0.00 | 0.00 | 0.00 | 64 | 1011.5 |
| 20260502180711 | 31 | 211 | 11.3 | 19.3 | 0.00 | 0.00 | 0.00 | 63 | 1011.6 |
| 20260502180210 | 31 | 227 | 8.0 | 12.9 | 0.00 | 0.00 | 0.00 | 62 | 1011.8 |
| 20260502170211 | 31 | 224 | 8.0 | 14.5 | 0.00 | 0.00 | 0.00 | 66 | 1011.8 |
| 20260502164210 | 31 | 262 | 9.7 | 19.3 | 0.00 | 0.00 | 0.00 | 66 | 1011.9 |
| 20260502163711 | 31 | 254 | 6.4 | 12.9 | 0.00 | 0.00 | 0.00 | 66 | 1012.1 |
| 20260502163211 | 31 | 243 | 6.4 | 9.7 | 0.00 | 0.00 | 0.00 | 66 | 1012.1 |
| 20260502162711 | 31 | 209 | 8.0 | 12.9 | 0.00 | 0.00 | 0.00 | 67 | 1012.1 |
| 20260502162210 | 30 | 264 | 6.4 | 11.3 | 0.00 | 0.00 | 0.00 | 66 | 1012.0 |
| 20260502161711 | 30 | 257 | 6.4 | 11.3 | 0.00 | 0.00 | 0.00 | 66 | 1012.0 |
| 20260502161211 | 30 | 201 | 11.3 | 16.1 | 0.00 | 0.00 | 0.00 | 69 | 1011.9 |
| 20260502160711 | 30 | 222 | 9.7 | 14.5 | 0.00 | 0.00 | 0.00 | 69 | 1011.8 |
| 20260502160210 | 30 | 226 | 8.0 | 14.5 | 0.00 | 0.00 | 0.00 | 70 | 1011.9 |
| 20260502152210 | 29 | 216 | 11.3 | 17.7 | 0.00 | 0.00 | 0.00 | 73 | 1011.8 |
| 20260502151712 | 30 | 212 | 12.9 | 14.5 | 0.00 | 0.00 | 0.00 | 71 | 1011.7 |
| 20260502151210 | 30 | 247 | 8.0 | 16.1 | 0.00 | 0.00 | 0.00 | 72 | 1011.7 |
| 20260502150710 | 29 | 205 | 9.7 | 14.5 | 0.00 | 0.00 | 0.00 | 73 | 1011.7 |
| 20260502150210 | 28 | 197 | 14.5 | 20.9 | 0.00 | 0.00 | 0.00 | 74 | 1011.5 |
| 20260502130710 | 26 | 203 | 6.4 | 11.3 | 0.00 | 0.00 | 0.00 | 83 | 1011.1 |
| 20260502130210 | 25 | 198 | 4.8 | 8.0 | 0.00 | 0.00 | 0.00 | 84 | 1011.1 |
| 20260502123710 | 23 | 188 | 3.2 | 8.0 | 0.00 | 0.00 | 0.00 | 87 | 1011.0 |
| 20260502123211 | 23 | 183 | 3.2 | 6.4 | 0.00 | 0.00 | 0.00 | 88 | 1011.0 |
| 20260502122710 | 23 | 163 | 3.2 | 6.4 | 0.00 | 0.00 | 0.00 | 89 | 1011.0 |
| 20260502122210 | 22 | 182 | 3.2 | 4.8 | 0.00 | 0.00 | 0.00 | 90 | 1010.9 |
| 20260502121710 | 22 | 161 | 3.2 | 4.8 | 0.00 | 0.00 | 0.00 | 90 | 1010.9 |
| 20260502121210 | 22 | 155 | 3.2 | 4.8 | 0.00 | 0.00 | 0.00 | 90 | 1010.9 |
| 20260502120711 | 22 | 188 | 4.8 | 8.0 | 0.00 | 0.00 | 0.00 | 90 | 1010.9 |
| 20260502120210 | 22 | 186 | 3.2 | 8.0 | 0.00 | 0.00 | 0.00 | 91 | 1010.8 |
| 20260502115710 | 21 | 195 | 4.8 | 6.4 | 0.00 | 0.00 | 0.00 | 91 | 1010.8 |
| 20260502115211 | 21 | 190 | 4.8 | 8.0 | 0.00 | 0.00 | 0.00 | 91 | 1010.7 |
| 20260502114710 | 21 | 193 | 1.6 | 4.8 | 0.00 | 0.00 | 0.00 | 91 | 1010.8 |
| 20260502114212 | 21 | 173 | 4.8 | 6.4 | 0.00 | 0.00 | 0.00 | 92 | 1010.8 |
| 20260502113710 | 21 | 152 | 3.2 | 6.4 | 0.00 | 0.00 | 0.00 | 92 | 1010.7 |
| 20260502113212 | 21 | 170 | 3.2 | 6.4 | 0.00 | 0.00 | 0.00 | 92 | 1010.8 |
| 20260502112711 | 20 | 187 | 1.6 | 4.8 | 0.00 | 0.00 | 0.00 | 92 | 1010.8 |
| 20260502112210 | 20 | 178 | 1.6 | 4.8 | 0.00 | 0.00 | 0.00 | 92 | 1010.8 |
| 20260502111712 | 20 | 199 | 1.6 | 3.2 | 0.00 | 0.00 | 0.00 | 92 | 1010.8 |
| 20260502111210 | 20 | 165 | 0.0 | 3.2 | 0.00 | 0.00 | 0.00 | 92 | 1010.7 |
| 20260502110710 | 20 | 164 | 1.6 | 3.2 | 0.00 | 0.00 | 0.00 | 92 | 1010.8 |
| 20260502110210 | 20 | 193 | 3.2 | 3.2 | 0.00 | 0.00 | 0.00 | 92 | 1010.8 |
| 20260502105711 | 20 | 170 | 1.6 | 3.2 | 0.00 | 0.00 | 0.00 | 92 | 1010.7 |
| 20260502105210 | 20 | 182 | 1.6 | 3.2 | 0.00 | 0.00 | 0.00 | 92 | 1010.6 |
| 20260502104710 | 20 | 185 | 0.0 | 3.2 | 0.00 | 0.00 | 0.00 | 92 | 1010.6 |
| 20260502104210 | 20 | 166 | 1.6 | 3.2 | 0.00 | 0.00 | 0.00 | 92 | 1010.6 |
| 20260502103711 | 20 | 152 | 1.6 | 3.2 | 0.00 | 0.00 | 0.00 | 92 | 1010.7 |
| 20260502103211 | 20 | 171 | 0.0 | 1.6 | 0.00 | 0.00 | 0.00 | 93 | 1010.6 |
| 20260502102710 | 20 | 164 | 1.6 | 3.2 | 0.00 | 0.00 | 0.00 | 93 | 1010.7 |
| 20260502102210 | 20 | 158 | 1.6 | 3.2 | 0.00 | 0.00 | 0.00 | 93 | 1010.7 |
| 20260502101710 | 20 | 168 | 1.6 | 3.2 | 0.00 | 0.00 | 0.00 | 93 | 1010.8 |
| 20260502101211 | 19 | 181 | 1.6 | 3.2 | 0.00 | 0.00 | 0.00 | 94 | 1010.9 |
| 20260502100712 | 19 | 155 | 0.0 | 1.6 | 0.00 | 0.00 | 0.00 | 94 | 1010.9 |
| 20260502100210 | 19 | 157 | 1.6 | 4.8 | 0.00 | 0.00 | 0.00 | 95 | 1010.9 |
| 20260502091210 | 18 | 0 | 0.0 | 0.0 | 0.00 | 0.00 | 0.00 | 96 | 1011.2 |
| 20260502090710 | 18 | 0 | 0.0 | 0.0 | 0.00 | 0.00 | 0.00 | 96 | 1011.2 |
| 20260502090210 | 18 | 0 | 0.0 | 0.0 | 0.00 | 0.00 | 0.00 | 96 | 1011.1 |
| 20260502071210 | 19 | 0 | 0.0 | 0.0 | 0.00 | 0.00 | 0.00 | 95 | 1011.0 |
| 20260502070712 | 19 | 0 | 0.0 | 0.0 | 0.00 | 0.00 | 0.00 | 95 | 1010.9 |
| 20260502070210 | 18 | 114 | 0.0 | 3.2 | 0.00 | 0.00 | 0.00 | 95 | 1010.9 |
| 20260502065710 | 18 | 0 | 0.0 | 0.0 | 0.00 | 0.00 | 0.00 | 95 | 1011.0 |
| 20260502065210 | 18 | 0 | 0.0 | 0.0 | 0.00 | 0.00 | 0.00 | 95 | 1011.1 |
| 20260502064710 | 18 | 0 | 0.0 | 0.0 | 0.00 | 0.00 | 0.00 | 95 | 1011.2 |
| 20260502064210 | 18 | 0 | 0.0 | 0.0 | 0.00 | 0.00 | 0.00 | 95 | 1011.1 |
| 20260502063710 | 18 | 0 | 0.0 | 0.0 | 0.00 | 0.00 | 0.00 | 95 | 1011.2 |
| 20260502063211 | 18 | 0 | 0.0 | 0.0 | 0.00 | 0.00 | 0.00 | 95 | 1011.2 |
| 20260502062712 | 18 | 0 | 0.0 | 0.0 | 0.00 | 0.00 | 0.00 | 95 | 1011.3 |
| 20260502062210 | 18 | 0 | 0.0 | 0.0 | 0.00 | 0.00 | 0.00 | 95 | 1011.3 |
| 20260502061710 | 18 | 0 | 0.0 | 0.0 | 0.00 | 0.00 | 0.00 | 95 | 1011.2 |
| 20260502061210 | 18 | 0 | 0.0 | 0.0 | 0.00 | 0.00 | 0.00 | 95 | 1011.3 |
| 20260502060710 | 18 | 0 | 0.0 | 0.0 | 0.00 | 0.00 | 0.00 | 95 | 1011.3 |
| 20260502060210 | 18 | 0 | 0.0 | 0.0 | 0.00 | 0.00 | 0.00 | 94 | 1011.4 |
| 20260502055710 | 18 | 0 | 0.0 | 0.0 | 0.00 | 0.00 | 0.00 | 94 | 1011.5 |
| 20260502055210 | 18 | 341 | 0.0 | 0.0 | 0.00 | 0.00 | 0.00 | 94 | 1011.5 |
| 20260502054711 | 18 | 0 | 0.0 | 0.0 | 0.00 | 0.00 | 0.00 | 94 | 1011.4 |
| 20260502054210 | 18 | 34 | 0.0 | 0.0 | 0.00 | 0.00 | 0.00 | 94 | 1011.6 |
| 20260502053710 | 18 | 0 | 0.0 | 0.0 | 0.00 | 0.00 | 0.00 | 94 | 1011.7 |